sensor_id;sensor_type;location;lat;lon;timestamp;P1;durP1;ratioP1;P2;durP2;ratioP2
7585;SDS011;12459;42.646;23.292;2023-10-31T00:06:36;19.60;;;18.63;;
7585;SDS011;12459;42.646;23.292;2023-10-31T00:21:37;19.47;;;18.50;;
7585;SDS011;12459;42.646;23.292;2023-10-31T00:36:39;18.60;;;17.70;;
7585;SDS011;12459;42.646;23.292;2023-10-31T00:51:41;19.77;;;18.77;;
7585;SDS011;12459;42.646;23.292;2023-10-31T01:06:43;17.13;;;16.23;;
7585;SDS011;12459;42.646;23.292;2023-10-31T01:21:45;16.30;;;15.50;;
7585;SDS011;12459;42.646;23.292;2023-10-31T01:36:46;17.83;;;16.93;;
7585;SDS011;12459;42.646;23.292;2023-10-31T01:51:48;18.60;;;17.70;;
7585;SDS011;12459;42.646;23.292;2023-10-31T02:06:50;18.37;;;17.47;;
7585;SDS011;12459;42.646;23.292;2023-10-31T02:21:52;18.47;;;17.57;;
7585;SDS011;12459;42.646;23.292;2023-10-31T02:36:54;16.93;;;16.10;;
7585;SDS011;12459;42.646;23.292;2023-10-31T02:51:56;18.00;;;17.10;;
7585;SDS011;12459;42.646;23.292;2023-10-31T03:06:58;17.90;;;17.00;;
7585;SDS011;12459;42.646;23.292;2023-10-31T03:22:00;16.50;;;15.70;;
7585;SDS011;12459;42.646;23.292;2023-10-31T03:37:01;17.87;;;16.97;;
7585;SDS011;12459;42.646;23.292;2023-10-31T03:52:03;17.77;;;16.87;;
7585;SDS011;12459;42.646;23.292;2023-10-31T04:07:05;16.77;;;15.97;;
7585;SDS011;12459;42.646;23.292;2023-10-31T04:22:08;15.93;;;15.13;;
7585;SDS011;12459;42.646;23.292;2023-10-31T04:37:10;17.20;;;16.30;;
7585;SDS011;12459;42.646;23.292;2023-10-31T04:52:12;15.67;;;14.87;;
7585;SDS011;12459;42.646;23.292;2023-10-31T05:07:14;15.87;;;15.07;;
7585;SDS011;12459;42.646;23.292;2023-10-31T05:22:16;17.77;;;16.87;;
7585;SDS011;12459;42.646;23.292;2023-10-31T05:37:18;15.90;;;15.10;;
7585;SDS011;12459;42.646;23.292;2023-10-31T05:52:19;16.23;;;15.43;;
7585;SDS011;12459;42.646;23.292;2023-10-31T06:07:21;17.70;;;16.80;;
7585;SDS011;12459;42.646;23.292;2023-10-31T06:22:23;17.63;;;16.73;;
7585;SDS011;12459;42.646;23.292;2023-10-31T06:37:25;21.37;;;20.37;;
7585;SDS011;12459;42.646;23.292;2023-10-31T06:52:27;20.20;;;19.20;;
7585;SDS011;12459;42.646;23.292;2023-10-31T07:07:29;23.27;;;22.17;;
7585;SDS011;12459;42.646;23.292;2023-10-31T07:22:31;23.10;;;22.00;;
7585;SDS011;12459;42.646;23.292;2023-10-31T07:37:33;24.93;;;23.73;;
7585;SDS011;12459;42.646;23.292;2023-10-31T07:52:37;26.73;;;25.43;;
7585;SDS011;12459;42.646;23.292;2023-10-31T08:07:39;29.87;;;28.47;;
7585;SDS011;12459;42.646;23.292;2023-10-31T08:22:41;29.87;;;28.47;;
7585;SDS011;12459;42.646;23.292;2023-10-31T08:37:43;35.17;;;33.57;;
7585;SDS011;12459;42.646;23.292;2023-10-31T08:52:45;33.13;;;31.60;;
7585;SDS011;12459;42.646;23.292;2023-10-31T09:07:47;33.27;;;31.73;;
7585;SDS011;12459;42.646;23.292;2023-10-31T09:22:49;36.83;;;35.13;;
7585;SDS011;12459;42.646;23.292;2023-10-31T09:37:51;36.07;;;34.37;;
7585;SDS011;12459;42.646;23.292;2023-10-31T09:52:53;38.63;;;36.83;;
7585;SDS011;12459;42.646;23.292;2023-10-31T10:07:55;42.20;;;40.30;;
7585;SDS011;12459;42.646;23.292;2023-10-31T10:23:02;41.93;;;40.03;;
7585;SDS011;12459;42.646;23.292;2023-10-31T10:38:07;40.57;;;38.67;;
7585;SDS011;12459;42.646;23.292;2023-10-31T10:53:14;46.33;;;44.23;;
7585;SDS011;12459;42.646;23.292;2023-10-31T11:08:23;47.77;;;45.57;;
7585;SDS011;12459;42.646;23.292;2023-10-31T11:23:27;49.10;;;46.90;;
7585;SDS011;12459;42.646;23.292;2023-10-31T11:38:34;44.43;;;42.43;;
7585;SDS011;12459;42.646;23.292;2023-10-31T11:53:38;46.43;;;44.33;;
7585;SDS011;12459;42.646;23.292;2023-10-31T12:08:42;46.53;;;44.43;;
7585;SDS011;12459;42.646;23.292;2023-10-31T12:23:45;48.10;;;45.90;;
7585;SDS011;12459;42.646;23.292;2023-10-31T12:38:47;52.40;;;50.00;;
7585;SDS011;12459;42.646;23.292;2023-10-31T12:53:50;49.90;;;47.63;;
7585;SDS011;12459;42.646;23.292;2023-10-31T13:08:54;52.70;;;50.30;;
7585;SDS011;12459;42.646;23.292;2023-10-31T13:23:57;53.33;;;50.93;;
7585;SDS011;12459;42.646;23.292;2023-10-31T13:39:00;50.17;;;47.87;;
7585;SDS011;12459;42.646;23.292;2023-10-31T13:54:02;50.10;;;47.80;;
7585;SDS011;12459;42.646;23.292;2023-10-31T14:09:04;46.60;;;44.50;;
7585;SDS011;12459;42.646;23.292;2023-10-31T14:24:06;48.20;;;46.00;;
7585;SDS011;12459;42.646;23.292;2023-10-31T14:39:13;39.53;;;37.73;;
7585;SDS011;12459;42.646;23.292;2023-10-31T14:54:15;44.00;;;42.00;;
7585;SDS011;12459;42.646;23.292;2023-10-31T15:09:16;42.67;;;40.73;;
7585;SDS011;12459;42.646;23.292;2023-10-31T15:24:20;38.23;;;36.50;;
7585;SDS011;12459;42.646;23.292;2023-10-31T15:39:22;38.63;;;36.83;;
7585;SDS011;12459;42.646;23.292;2023-10-31T15:54:24;36.90;;;35.20;;
7585;SDS011;12459;42.646;23.292;2023-10-31T16:09:26;38.57;;;36.77;;
7585;SDS011;12459;42.646;23.292;2023-10-31T16:24:27;40.03;;;38.23;;
7585;SDS011;12459;42.646;23.292;2023-10-31T16:39:29;37.77;;;36.03;;
7585;SDS011;12459;42.646;23.292;2023-10-31T16:54:32;41.13;;;39.23;;
7585;SDS011;12459;42.646;23.292;2023-10-31T17:09:34;34.17;;;32.57;;
7585;SDS011;12459;42.646;23.292;2023-10-31T17:24:35;36.57;;;34.87;;
7585;SDS011;12459;42.646;23.292;2023-10-31T17:39:37;36.37;;;34.67;;
7585;SDS011;12459;42.646;23.292;2023-10-31T17:54:39;38.67;;;36.87;;
7585;SDS011;12459;42.646;23.292;2023-10-31T18:09:43;36.43;;;34.73;;
7585;SDS011;12459;42.646;23.292;2023-10-31T18:24:45;39.13;;;37.33;;
7585;SDS011;12459;42.646;23.292;2023-10-31T18:39:47;36.50;;;34.80;;
7585;SDS011;12459;42.646;23.292;2023-10-31T18:54:49;34.53;;;32.93;;
7585;SDS011;12459;42.646;23.292;2023-10-31T19:09:51;34.47;;;32.87;;
7585;SDS011;12459;42.646;23.292;2023-10-31T19:24:54;33.93;;;32.33;;
7585;SDS011;12459;42.646;23.292;2023-10-31T19:39:56;34.07;;;32.47;;
7585;SDS011;12459;42.646;23.292;2023-10-31T19:54:59;33.83;;;32.23;;
7585;SDS011;12459;42.646;23.292;2023-10-31T20:10:01;36.47;;;34.77;;
7585;SDS011;12459;42.646;23.292;2023-10-31T20:25:02;36.80;;;35.10;;
7585;SDS011;12459;42.646;23.292;2023-10-31T20:40:06;35.80;;;34.13;;
7585;SDS011;12459;42.646;23.292;2023-10-31T20:55:08;33.60;;;32.03;;
7585;SDS011;12459;42.646;23.292;2023-10-31T21:10:10;35.03;;;33.43;;
7585;SDS011;12459;42.646;23.292;2023-10-31T21:25:12;34.07;;;32.47;;
7585;SDS011;12459;42.646;23.292;2023-10-31T21:40:13;37.00;;;35.30;;
7585;SDS011;12459;42.646;23.292;2023-10-31T21:55:15;34.13;;;32.53;;
7585;SDS011;12459;42.646;23.292;2023-10-31T22:10:17;33.57;;;31.97;;
7585;SDS011;12459;42.646;23.292;2023-10-31T22:25:19;33.13;;;31.60;;
7585;SDS011;12459;42.646;23.292;2023-10-31T22:40:20;36.30;;;34.60;;
7585;SDS011;12459;42.646;23.292;2023-10-31T22:55:22;35.07;;;33.47;;
7585;SDS011;12459;42.646;23.292;2023-10-31T23:10:28;40.30;;;38.47;;
7585;SDS011;12459;42.646;23.292;2023-10-31T23:25:30;42.53;;;40.60;;
7585;SDS011;12459;42.646;23.292;2023-10-31T23:40:32;39.40;;;37.60;;
7585;SDS011;12459;42.646;23.292;2023-10-31T23:55:34;37.30;;;35.60;;
